createdAt,value
2019-03-04T00:00:12.600Z,8.03
2019-03-04T00:02:41.364Z,7.53
2019-03-04T00:05:10.172Z,6.33
2019-03-04T00:07:38.965Z,15.25
2019-03-04T00:10:07.846Z,12.30
2019-03-04T00:12:36.297Z,7.62
2019-03-04T00:15:07.116Z,7.40
2019-03-04T00:17:35.838Z,7.00
2019-03-04T00:20:07.149Z,6.03
2019-03-04T00:22:35.784Z,7.17
2019-03-04T00:25:05.962Z,5.08
2019-03-04T00:27:35.921Z,6.87
2019-03-04T00:30:07.465Z,5.33
2019-03-04T00:32:35.928Z,15.30
2019-03-04T00:35:05.672Z,4.70
2019-03-04T00:37:34.151Z,6.65
2019-03-04T00:40:02.685Z,6.08
2019-03-04T00:42:31.210Z,4.35
2019-03-04T00:45:00.283Z,5.75
2019-03-04T00:47:28.794Z,3.58
2019-03-04T00:49:57.549Z,6.05
2019-03-04T00:52:26.184Z,1.90
2019-03-04T00:54:55.398Z,6.05
2019-03-04T00:57:23.900Z,5.17
2019-03-04T00:59:54.325Z,3.80
2019-03-04T01:02:22.771Z,6.95
2019-03-04T01:04:51.598Z,7.70
2019-03-04T01:07:20.280Z,8.58
2019-03-04T01:09:50.169Z,6.42
2019-03-04T01:12:18.637Z,3.87
2019-03-04T01:14:47.082Z,6.60
2019-03-04T01:17:15.824Z,4.22
2019-03-04T01:19:44.630Z,7.62
2019-03-04T01:22:13.343Z,4.85
2019-03-04T01:24:43.308Z,3.20
2019-03-04T01:27:11.797Z,7.90
2019-03-04T01:29:40.601Z,7.33
2019-03-04T01:32:10.941Z,3.08
2019-03-04T01:34:39.490Z,2.87
2019-03-04T01:37:07.928Z,3.25
2019-03-04T01:39:36.663Z,6.72
2019-03-04T01:42:05.438Z,2.42
2019-03-04T01:44:34.160Z,4.10
2019-03-04T01:47:02.935Z,1.82
2019-03-04T01:49:31.476Z,2.70
2019-03-04T01:52:00.181Z,3.10
2019-03-04T01:54:29.871Z,3.62
2019-03-04T01:56:58.677Z,2.85
2019-03-04T01:59:27.453Z,3.50
2019-03-04T02:01:56.263Z,3.90
2019-03-04T02:04:24.729Z,3.65
2019-03-04T02:06:53.514Z,5.33
2019-03-04T02:09:22.489Z,4.12
2019-03-04T02:11:51.304Z,4.92
2019-03-04T02:14:20.031Z,2.40
2019-03-04T02:16:48.485Z,2.30
2019-03-04T02:19:17.023Z,2.42
2019-03-04T02:21:45.863Z,3.80
2019-03-04T02:24:19.737Z,1.47
2019-03-04T02:26:48.463Z,3.20
2019-03-04T02:29:17.228Z,2.77
2019-03-04T02:31:47.118Z,3.85
2019-03-04T02:34:15.789Z,2.00
2019-03-04T02:36:44.231Z,2.12
2019-03-04T02:39:14.111Z,3.05
2019-03-04T02:41:42.924Z,2.75
2019-03-04T02:44:11.465Z,1.85
2019-03-04T02:46:39.910Z,3.25
2019-03-04T02:49:08.392Z,2.12
2019-03-04T02:51:37.115Z,2.50
2019-03-04T02:54:07.177Z,3.70
2019-03-04T02:56:36.107Z,0.72
2019-03-04T02:59:05.056Z,2.52
2019-03-04T03:01:33.597Z,2.60
2019-03-04T03:04:03.770Z,1.32
2019-03-04T03:06:33.536Z,1.25
2019-03-04T03:09:02.412Z,3.12
2019-03-04T03:11:31.210Z,4.03
2019-03-04T03:14:02.263Z,2.00
2019-03-04T03:16:30.739Z,2.67
2019-03-04T03:18:59.221Z,6.00
2019-03-04T03:21:27.930Z,2.50
2019-03-04T03:23:59.338Z,1.85
2019-03-04T03:26:27.989Z,1.57
2019-03-04T03:28:56.844Z,2.00
2019-03-04T03:31:25.391Z,1.98
2019-03-04T03:33:53.974Z,2.35
2019-03-04T03:36:23.772Z,0.80
2019-03-04T03:38:52.867Z,1.47
2019-03-04T03:41:21.610Z,3.12
2019-03-04T03:43:52.218Z,3.27
2019-03-04T03:46:22.635Z,1.47
2019-03-04T03:48:51.199Z,2.60
2019-03-04T03:51:20.010Z,1.35
2019-03-04T03:53:48.480Z,2.27
2019-03-04T03:56:17.317Z,3.27
2019-03-04T03:58:45.857Z,2.15
2019-03-04T04:01:15.783Z,4.53
2019-03-04T04:03:44.761Z,4.15
2019-03-04T04:06:13.257Z,1.12
2019-03-04T04:08:41.746Z,3.77
2019-03-04T04:11:10.498Z,1.45
2019-03-04T04:13:39.368Z,1.72
2019-03-04T04:16:08.207Z,4.97
2019-03-04T04:18:36.746Z,1.87
2019-03-04T04:21:05.671Z,4.45
2019-03-04T04:23:34.543Z,3.25
2019-03-04T04:26:06.208Z,2.92
2019-03-04T04:28:34.974Z,3.67
2019-03-04T04:31:03.778Z,1.98
2019-03-04T04:33:33.782Z,3.10
2019-03-04T04:36:04.021Z,4.03
2019-03-04T04:38:33.760Z,1.92
2019-03-04T04:41:02.224Z,5.25
2019-03-04T04:43:31.059Z,5.78
2019-03-04T04:45:59.587Z,1.57
2019-03-04T04:48:28.424Z,1.62
2019-03-04T04:50:57.230Z,1.92
2019-03-04T04:53:26.000Z,1.95
2019-03-04T04:55:54.741Z,1.67
2019-03-04T04:58:23.524Z,1.60
2019-03-04T05:00:52.361Z,3.25
2019-03-04T05:03:21.169Z,1.65
2019-03-04T05:05:49.956Z,3.62
2019-03-04T05:08:18.767Z,4.08
2019-03-04T05:10:47.290Z,3.80
2019-03-04T05:13:16.121Z,1.62
2019-03-04T05:15:46.525Z,1.42
2019-03-04T05:18:17.699Z,0.85
2019-03-04T05:20:46.456Z,1.95
2019-03-04T05:23:15.236Z,3.15
2019-03-04T05:25:43.740Z,2.77
2019-03-04T05:28:12.431Z,2.22
2019-03-04T05:30:41.231Z,0.98
2019-03-04T05:33:10.088Z,2.35
2019-03-04T05:35:38.526Z,1.07
2019-03-04T05:38:07.290Z,1.47
2019-03-04T05:40:36.138Z,5.67
2019-03-04T05:43:04.590Z,1.00
2019-03-04T05:45:34.454Z,4.22
2019-03-04T05:48:04.888Z,3.37
2019-03-04T05:50:33.732Z,10.10
2019-03-04T05:53:02.672Z,4.40
2019-03-04T05:55:31.142Z,4.75
2019-03-04T05:57:59.590Z,2.25
2019-03-04T06:00:31.738Z,5.62
2019-03-04T06:03:03.028Z,2.35
2019-03-04T06:05:33.568Z,0.50
2019-03-04T06:08:03.676Z,4.87
2019-03-04T06:10:32.143Z,1.12
2019-03-04T06:13:00.921Z,3.33
2019-03-04T06:15:29.432Z,2.00
2019-03-04T06:17:59.317Z,6.83
2019-03-04T06:20:28.111Z,0.68
2019-03-04T06:23:00.038Z,1.05
2019-03-04T06:25:29.347Z,5.22
2019-03-04T06:27:58.256Z,0.72
2019-03-04T06:30:31.874Z,1.50
2019-03-04T06:33:00.661Z,4.37
2019-03-04T06:35:29.130Z,5.95
2019-03-04T06:37:58.025Z,0.98
2019-03-04T06:40:27.821Z,6.22
2019-03-04T06:42:56.269Z,2.67
2019-03-04T06:45:24.785Z,2.72
2019-03-04T06:47:54.833Z,7.62
2019-03-04T06:50:45.908Z,3.70
2019-03-04T06:53:34.037Z,2.42
2019-03-04T06:56:11.883Z,2.33
2019-03-04T06:58:58.457Z,2.05
2019-03-04T07:01:29.973Z,2.12
2019-03-04T07:04:01.823Z,2.08
2019-03-04T07:06:30.306Z,11.48
2019-03-04T07:09:01.701Z,4.15
2019-03-04T07:11:30.245Z,7.00
2019-03-04T07:14:00.601Z,4.30
2019-03-04T07:16:29.053Z,8.88
2019-03-04T07:18:57.565Z,7.00
2019-03-04T07:21:26.144Z,7.17
2019-03-04T07:23:57.284Z,7.08
2019-03-04T07:26:26.021Z,5.10
2019-03-04T07:28:54.499Z,10.78
2019-03-04T07:31:23.032Z,50.98
2019-03-04T07:33:53.015Z,35.20
2019-03-04T07:36:21.915Z,13.15
2019-03-04T07:38:55.424Z,6.30
2019-03-04T07:41:24.717Z,9.55
2019-03-04T07:43:53.505Z,6.87
2019-03-04T07:46:22.295Z,3.50
2019-03-04T07:48:50.804Z,6.17
2019-03-04T07:51:19.882Z,11.08
2019-03-04T07:53:48.790Z,11.68
2019-03-04T07:56:17.297Z,6.30
2019-03-04T07:58:45.890Z,14.60
2019-03-04T08:01:14.486Z,12.88
2019-03-04T08:03:43.299Z,9.43
2019-03-04T08:06:12.409Z,7.67
2019-03-04T08:08:44.137Z,8.60
2019-03-04T08:11:34.037Z,13.08
2019-03-04T08:14:10.497Z,10.15
2019-03-04T08:16:39.270Z,8.08
2019-03-04T08:19:08.818Z,9.53
2019-03-04T08:21:37.337Z,6.90
2019-03-04T08:24:10.892Z,9.30
2019-03-04T08:26:39.359Z,6.70
2019-03-04T08:29:08.523Z,21.15
2019-03-04T08:31:37.262Z,3.77
2019-03-04T08:34:09.211Z,9.15
2019-03-04T08:36:37.129Z,7.55
2019-03-04T08:39:08.969Z,8.25
2019-03-04T08:41:37.418Z,12.85
2019-03-04T08:44:07.117Z,6.85
2019-03-04T08:46:36.956Z,8.45
2019-03-04T08:49:06.965Z,15.55
2019-03-04T08:51:35.822Z,8.30
2019-03-04T08:54:05.732Z,9.60
2019-03-04T08:56:34.531Z,10.00
2019-03-04T08:59:03.314Z,6.08
2019-03-04T09:01:35.633Z,12.15
2019-03-04T09:04:04.282Z,3.85
2019-03-04T09:06:33.162Z,13.25
2019-03-04T09:09:01.974Z,10.50
2019-03-04T09:11:30.826Z,8.50
2019-03-04T09:13:59.620Z,11.50
2019-03-04T09:16:28.288Z,3.25
2019-03-04T09:18:57.087Z,4.72
2019-03-04T09:21:25.570Z,4.22
2019-03-04T09:23:55.061Z,6.87
2019-03-04T09:26:23.514Z,3.47
2019-03-04T09:28:52.847Z,2.52
2019-03-04T09:31:21.298Z,3.52
2019-03-04T09:33:50.025Z,3.25
2019-03-04T09:36:18.499Z,4.17
2019-03-04T09:38:47.248Z,3.83
2019-03-04T09:41:15.706Z,3.65
2019-03-04T09:43:44.279Z,5.10
2019-03-04T09:46:13.134Z,2.35
2019-03-04T09:48:41.934Z,4.42
2019-03-04T09:51:10.516Z,4.08
2019-03-04T09:53:39.821Z,2.45
2019-03-04T09:56:08.779Z,5.83
2019-03-04T09:58:39.038Z,0.78
2019-03-04T10:01:23.170Z,3.27
2019-03-04T10:03:57.472Z,7.90
2019-03-04T10:06:29.334Z,5.92
2019-03-04T10:09:04.689Z,1.42
2019-03-04T10:11:55.687Z,3.12
2019-03-04T10:14:46.464Z,0.88
2019-03-04T10:17:18.324Z,1.95
2019-03-04T10:19:56.033Z,1.35
2019-03-04T10:22:28.617Z,1.98
2019-03-04T10:25:21.275Z,1.50
2019-03-04T10:27:58.731Z,0.70
2019-03-04T10:30:55.870Z,2.10
2019-03-04T10:33:36.569Z,1.15
2019-03-04T10:36:15.073Z,1.85
2019-03-04T10:39:11.217Z,1.57
2019-03-04T10:41:43.097Z,6.47
2019-03-04T10:44:37.880Z,2.70
2019-03-04T10:47:06.958Z,1.35
2019-03-04T10:49:37.438Z,5.30
2019-03-04T10:52:06.044Z,3.20
2019-03-04T10:54:37.279Z,2.42
2019-03-04T10:57:07.139Z,2.37
2019-03-04T10:59:37.041Z,3.90
2019-03-04T11:02:05.933Z,6.65
2019-03-04T11:04:34.857Z,5.00
2019-03-04T11:07:03.724Z,6.53
2019-03-04T11:09:32.237Z,6.33
2019-03-04T11:12:01.278Z,6.00
2019-03-04T11:14:32.918Z,7.85
2019-03-04T11:17:04.583Z,5.72
2019-03-04T11:19:35.055Z,11.83
2019-03-04T11:22:03.523Z,13.38
2019-03-04T11:24:32.048Z,6.28
2019-03-04T11:27:01.686Z,6.67
2019-03-04T11:29:30.205Z,9.90
2019-03-04T11:31:58.706Z,7.47
2019-03-04T11:34:45.437Z,11.47
2019-03-04T11:37:14.232Z,7.45
2019-03-04T11:39:47.654Z,7.05
2019-03-04T11:42:16.989Z,10.32
2019-03-04T11:44:46.418Z,7.85
2019-03-04T11:47:21.213Z,9.95
2019-03-04T11:49:50.090Z,10.25
2019-03-04T11:52:18.555Z,17.75
2019-03-04T11:54:49.431Z,9.48
2019-03-04T11:57:18.400Z,9.15
2019-03-04T11:59:46.839Z,7.67
2019-03-04T12:02:19.677Z,11.70
2019-03-04T12:04:50.017Z,11.00
2019-03-04T12:07:18.860Z,8.80
2019-03-04T12:12:40.826Z,8.80
2019-03-04T12:15:15.550Z,10.55
2019-03-04T12:17:44.394Z,8.50
2019-03-04T12:20:14.225Z,12.05
2019-03-04T12:22:42.670Z,14.05
2019-03-04T12:25:18.567Z,9.40
2019-03-04T12:27:47.445Z,7.37
2019-03-04T12:30:26.101Z,5.05
2019-03-04T12:32:56.017Z,14.90
2019-03-04T12:35:24.847Z,7.72
2019-03-04T12:37:53.670Z,9.55
2019-03-04T12:40:25.697Z,11.15
2019-03-04T12:42:54.153Z,14.55
2019-03-04T12:45:33.965Z,10.35
2019-03-04T12:47:58.846Z,6.40
2019-03-04T12:50:31.309Z,9.13
2019-03-04T12:52:59.844Z,17.90
2019-03-04T12:55:30.891Z,7.42
2019-03-04T12:57:59.710Z,10.38
2019-03-04T13:00:33.405Z,8.35
2019-03-04T13:03:01.895Z,14.03
2019-03-04T13:05:30.379Z,8.83
2019-03-04T13:08:00.099Z,9.23
2019-03-04T13:10:28.886Z,5.67
2019-03-04T13:12:57.661Z,3.72
2019-03-04T13:15:37.455Z,5.97
2019-03-04T13:18:08.141Z,10.78
2019-03-04T13:20:39.295Z,11.10
2019-03-04T13:23:08.182Z,10.98
2019-03-04T13:25:37.925Z,9.53
2019-03-04T13:28:08.623Z,12.45
2019-03-04T13:30:41.067Z,8.70
2019-03-04T13:33:10.113Z,6.28
2019-03-04T13:35:41.704Z,12.23
2019-03-04T13:38:10.259Z,11.73
2019-03-04T13:40:38.709Z,5.53
2019-03-04T13:43:07.218Z,7.83
2019-03-04T13:45:40.824Z,9.80
2019-03-04T13:48:13.860Z,4.42
2019-03-04T13:50:42.653Z,9.05
2019-03-04T13:53:11.122Z,5.45
2019-03-04T13:55:39.908Z,7.85
2019-03-04T13:58:09.970Z,5.58
2019-03-04T14:00:40.869Z,7.37
2019-03-04T14:03:09.847Z,7.87
2019-03-04T14:05:38.284Z,4.37
2019-03-04T14:08:08.470Z,4.55
2019-03-04T14:10:42.980Z,8.80
2019-03-04T14:13:11.634Z,5.95
2019-03-04T14:15:46.106Z,6.50
2019-03-04T14:18:14.884Z,4.75
2019-03-04T14:20:43.692Z,4.97
2019-03-04T14:23:12.551Z,7.67
2019-03-04T14:25:42.330Z,5.72
2019-03-04T14:28:10.825Z,3.77
2019-03-04T14:30:39.617Z,3.02
2019-03-04T14:33:08.424Z,7.33
2019-03-04T14:35:37.130Z,6.35
2019-03-04T14:38:06.002Z,3.12
2019-03-04T14:40:34.446Z,4.30
2019-03-04T14:43:02.936Z,8.08
2019-03-04T14:45:31.448Z,8.28
2019-03-04T14:48:00.213Z,7.60
2019-03-04T14:50:28.768Z,5.95
2019-03-04T14:52:57.727Z,3.30
2019-03-04T14:55:31.653Z,9.30
2019-03-04T14:58:02.028Z,7.35
2019-03-04T15:00:42.244Z,9.38
2019-03-04T15:03:20.582Z,6.45
2019-03-04T15:05:41.249Z,5.75
2019-03-04T15:08:09.973Z,9.50
2019-03-04T15:10:38.780Z,6.90
2019-03-04T15:13:09.798Z,7.22
2019-03-04T15:15:38.145Z,8.55
2019-03-04T15:18:06.961Z,5.47
2019-03-04T15:20:35.488Z,6.37
2019-03-04T15:23:04.061Z,9.55
2019-03-04T15:25:41.377Z,7.75
2019-03-04T15:28:15.420Z,8.83
2019-03-04T15:30:46.196Z,6.50
2019-03-04T15:33:18.414Z,8.78
2019-03-04T15:35:45.189Z,7.60
2019-03-04T15:38:15.006Z,8.55
2019-03-04T15:40:44.077Z,4.28
2019-03-04T15:43:12.843Z,11.88
2019-03-04T15:45:42.948Z,5.12
2019-03-04T15:48:11.481Z,5.22
2019-03-04T15:50:40.476Z,8.08
2019-03-04T15:53:09.345Z,11.15
2019-03-04T15:55:39.686Z,9.25
2019-03-04T15:58:08.153Z,8.93
2019-03-04T16:00:36.686Z,9.73
2019-03-04T16:03:06.097Z,5.10
2019-03-04T16:05:34.673Z,6.83
2019-03-04T16:08:07.566Z,3.17
2019-03-04T16:10:38.105Z,6.90
2019-03-04T16:13:10.628Z,9.83
2019-03-04T16:15:42.385Z,2.85
2019-03-04T16:18:10.846Z,5.90
2019-03-04T16:20:39.627Z,5.67
2019-03-04T16:23:09.720Z,4.37
2019-03-04T16:25:40.691Z,8.25
2019-03-04T16:28:15.026Z,7.85
2019-03-04T16:30:43.983Z,3.47
2019-03-04T16:33:14.005Z,4.70
2019-03-04T16:35:42.767Z,6.75
2019-03-04T16:38:11.967Z,4.50
2019-03-04T16:40:40.758Z,7.72
2019-03-04T16:43:10.518Z,3.60
2019-03-04T16:45:40.989Z,6.05
2019-03-04T16:48:10.783Z,4.80
2019-03-04T16:50:46.361Z,5.15
2019-03-04T16:53:21.025Z,5.95
2019-03-04T16:55:49.672Z,11.48
2019-03-04T16:58:18.547Z,6.22
2019-03-04T17:00:47.263Z,2.10
2019-03-04T17:03:15.794Z,4.62
2019-03-04T17:05:44.734Z,3.42
2019-03-04T17:08:13.525Z,7.17
2019-03-04T17:10:42.221Z,2.92
2019-03-04T17:13:10.807Z,8.15
2019-03-04T17:15:40.436Z,6.20
2019-03-04T17:18:10.529Z,5.37
2019-03-04T17:20:39.277Z,4.58
2019-03-04T17:23:10.279Z,9.85
2019-03-04T17:25:41.348Z,6.70
2019-03-04T17:28:11.256Z,5.75
2019-03-04T17:30:40.948Z,4.62
2019-03-04T17:33:10.837Z,9.18
2019-03-04T17:35:40.078Z,3.50
2019-03-04T17:38:09.702Z,7.58
2019-03-04T17:40:38.456Z,9.85
2019-03-04T17:43:06.893Z,6.17
2019-03-04T17:45:35.368Z,7.35
2019-03-04T17:48:06.403Z,3.85
2019-03-04T17:50:41.007Z,9.48
2019-03-04T17:53:12.252Z,54.08
2019-03-04T17:55:41.040Z,6.45
2019-03-04T17:58:10.775Z,10.25
2019-03-04T18:00:40.998Z,16.12
2019-03-04T18:03:10.528Z,11.68
2019-03-04T18:05:39.054Z,10.70
2019-03-04T18:08:07.529Z,14.15
2019-03-04T18:10:41.880Z,9.50
2019-03-04T18:13:13.432Z,15.98
2019-03-04T18:15:43.218Z,14.78
2019-03-04T18:18:13.650Z,20.62
2019-03-04T18:20:42.378Z,9.53
2019-03-04T18:23:12.626Z,7.05
2019-03-04T18:25:48.302Z,18.48
2019-03-04T18:28:31.995Z,8.48
2019-03-04T18:31:07.638Z,11.65
2019-03-04T18:33:57.677Z,14.03
2019-03-04T18:36:35.538Z,34.03
2019-03-04T18:39:31.403Z,13.70
2019-03-04T18:42:17.825Z,13.00
2019-03-04T18:44:49.412Z,15.55
2019-03-04T18:47:23.760Z,13.10
2019-03-04T18:49:53.440Z,16.50
2019-03-04T18:52:22.232Z,14.70
2019-03-04T18:54:50.784Z,13.58
2019-03-04T18:57:19.235Z,17.05
2019-03-04T19:00:00.379Z,17.25
2019-03-04T19:02:24.660Z,14.68
2019-03-04T19:04:53.217Z,14.58
2019-03-04T19:10:22.673Z,10.60
2019-03-04T19:12:51.680Z,14.07
2019-03-04T19:15:20.215Z,14.50
2019-03-04T19:17:48.656Z,4.80
2019-03-04T19:20:24.318Z,8.08
2019-03-04T19:22:52.784Z,10.03
2019-03-04T19:25:21.230Z,11.33
2019-03-04T19:27:50.100Z,13.38
2019-03-04T19:30:20.096Z,8.58
2019-03-04T19:32:49.306Z,2.37
2019-03-04T19:35:18.105Z,4.00
2019-03-04T19:37:46.618Z,3.20
2019-03-04T19:40:16.609Z,3.08
2019-03-04T19:42:45.827Z,1.30
2019-03-04T19:45:21.740Z,2.30
2019-03-04T19:47:52.595Z,3.87
2019-03-04T19:50:21.090Z,2.90
2019-03-04T19:52:49.627Z,2.75
2019-03-04T19:55:18.550Z,4.60
2019-03-04T19:57:47.329Z,6.70
2019-03-04T20:00:25.282Z,3.15
2019-03-04T20:02:56.289Z,8.90
2019-03-04T20:05:26.217Z,4.95
2019-03-04T20:07:54.693Z,5.30
2019-03-04T20:10:23.446Z,6.50
2019-03-04T20:12:53.610Z,3.67
2019-03-04T20:15:27.407Z,4.20
2019-03-04T20:17:56.703Z,3.77
2019-03-04T20:20:25.397Z,4.75
2019-03-04T20:22:53.964Z,2.25
2019-03-04T20:25:24.262Z,6.78
2019-03-04T20:27:52.703Z,3.45
2019-03-04T20:30:22.405Z,3.90
2019-03-04T20:32:51.245Z,4.25
2019-03-04T20:35:20.413Z,7.47
2019-03-04T20:38:10.719Z,2.45
2019-03-04T20:40:39.234Z,6.70
2019-03-04T20:43:07.744Z,6.97
2019-03-04T20:45:36.605Z,6.37
2019-03-04T20:48:05.250Z,11.20
2019-03-04T20:50:33.783Z,7.12
2019-03-04T20:53:02.325Z,7.12
2019-03-04T20:55:30.903Z,6.50
2019-03-04T20:58:02.023Z,6.20
2019-03-04T21:00:42.868Z,7.60
2019-03-04T21:03:11.468Z,8.63
2019-03-04T21:05:40.293Z,6.87
2019-03-04T21:08:11.674Z,7.20
2019-03-04T21:10:40.295Z,7.47
2019-03-04T21:13:17.415Z,10.35
2019-03-04T21:15:46.227Z,5.17
2019-03-04T21:18:15.081Z,7.05
2019-03-04T21:20:44.276Z,13.10
2019-03-04T21:23:12.740Z,8.65
2019-03-04T21:25:56.417Z,9.73
2019-03-04T21:28:41.849Z,17.95
2019-03-04T21:31:19.151Z,12.25
2019-03-04T21:34:11.117Z,14.07
2019-03-04T21:36:58.396Z,13.58
2019-03-04T21:39:37.430Z,8.83
2019-03-04T21:42:19.327Z,13.75
2019-03-04T21:45:03.100Z,12.50
2019-03-04T21:47:49.695Z,20.40
2019-03-04T21:50:37.998Z,11.83
2019-03-04T21:53:15.730Z,16.93
2019-03-04T21:55:49.868Z,11.75
2019-03-04T21:58:18.774Z,14.13
2019-03-04T22:00:50.809Z,16.10
2019-03-04T22:03:22.898Z,20.95
2019-03-04T22:05:51.585Z,20.52
2019-03-04T22:08:20.487Z,13.80
2019-03-04T22:10:49.423Z,22.05
2019-03-04T22:13:18.678Z,13.40
2019-03-04T22:15:47.233Z,16.93
2019-03-04T22:18:16.005Z,18.65
2019-03-04T22:20:45.100Z,12.30
2019-03-04T22:23:15.514Z,9.60
2019-03-04T22:25:45.243Z,12.10
2019-03-04T22:28:14.177Z,12.18
2019-03-04T22:30:42.986Z,17.65
2019-03-04T22:33:14.093Z,18.42
2019-03-04T22:35:42.913Z,20.27
2019-03-04T22:38:11.397Z,21.25
2019-03-04T22:40:39.985Z,17.77
2019-03-04T22:43:08.901Z,20.60
2019-03-04T22:45:37.540Z,18.62
2019-03-04T22:48:06.067Z,15.53
2019-03-04T22:50:34.597Z,10.82
2019-03-04T22:53:03.936Z,18.92
2019-03-04T22:55:42.006Z,12.68
2019-03-04T22:58:12.438Z,20.60
2019-03-04T23:00:49.750Z,20.77
2019-03-04T23:03:20.145Z,14.03
2019-03-04T23:05:54.267Z,13.45
2019-03-04T23:08:22.707Z,16.37
2019-03-04T23:10:51.799Z,24.50
2019-03-04T23:13:29.538Z,25.17
2019-03-04T23:16:00.499Z,23.10
2019-03-04T23:18:29.265Z,18.82
2019-03-04T23:21:00.427Z,28.50
2019-03-04T23:23:28.910Z,20.77
2019-03-04T23:25:57.420Z,21.17
2019-03-04T23:28:26.151Z,21.65
2019-03-04T23:30:54.843Z,26.13
2019-03-04T23:33:23.356Z,21.90
2019-03-04T23:35:52.100Z,24.43
2019-03-04T23:38:22.015Z,15.50
2019-03-04T23:40:50.724Z,23.80
2019-03-04T23:43:19.281Z,18.27
2019-03-04T23:45:48.091Z,19.50
2019-03-04T23:48:16.573Z,18.93
2019-03-04T23:50:45.088Z,17.25
2019-03-04T23:53:13.574Z,21.50
2019-03-04T23:55:42.725Z,19.27
2019-03-04T23:58:11.474Z,29.00
